Time,TemperatureF,DewpointF,PressureIn,WindDirection,WindDirectionDegrees,WindSpeedMPH,WindSpeedGustMPH,Humidity,HourlyPrecipIn,Conditions,Clouds,dailyrainin,SoftwareType,DateUTC
2013-03-04 00:13:00,31.5,31.0,30.18,NNE,22,0.0,-999.0,98,-99.99,,,0.00,Acu-Link.com,2013-03-04 08:13:00,
2013-03-04 00:28:00,32.0,31.5,30.18,NNE,22,0.0,-999.0,98,-99.99,,,0.00,Acu-Link.com,2013-03-04 08:28:00,
2013-03-04 00:43:00,30.9,30.4,30.18,NNE,22,0.0,-999.0,98,-99.99,,,0.00,Acu-Link.com,2013-03-04 08:43:00,
2013-03-04 00:59:00,30.9,30.4,30.19,NNE,22,0.0,-999.0,98,-99.99,,,0.00,Acu-Link.com,2013-03-04 08:59:00,
2013-03-04 01:19:00,32.0,31.5,30.19,NNE,22,0.0,-999.0,98,-99.99,,,0.00,Acu-Link.com,2013-03-04 09:19:00,
2013-03-04 01:34:00,30.4,29.9,30.18,NNE,22,0.0,-999.0,98,-99.99,,,0.00,Acu-Link.com,2013-03-04 09:34:00,
2013-03-04 01:50:00,30.2,29.7,30.18,NNE,22,0.0,-999.0,98,-99.99,,,0.00,Acu-Link.com,2013-03-04 09:50:00,
2013-03-04 02:05:00,30.0,29.5,30.18,NNE,22,0.0,-999.0,98,-99.99,,,0.00,Acu-Link.com,2013-03-04 10:05:00,
2013-03-04 02:20:00,30.0,29.5,30.18,NNE,22,0.0,-999.0,98,-99.99,,,0.00,Acu-Link.com,2013-03-04 10:20:00,
2013-03-04 02:35:00,30.2,29.7,30.19,SSE,157,0.0,-999.0,98,-99.99,,,0.00,Acu-Link.com,2013-03-04 10:35:00,
2013-03-04 02:50:00,29.5,29.0,30.19,West,270,0.0,-999.0,98,-99.99,,,0.00,Acu-Link.com,2013-03-04 10:50:00,
2013-03-04 03:05:00,29.1,28.6,30.18,West,270,0.0,-999.0,98,-99.99,,,0.00,Acu-Link.com,2013-03-04 11:05:00,
2013-03-04 03:20:00,28.9,28.4,30.18,NNE,22,0.0,-999.0,98,-99.99,,,0.00,Acu-Link.com,2013-03-04 11:20:00,
2013-03-04 03:35:00,29.1,28.6,30.18,NNE,22,0.0,-999.0,98,-99.99,,,0.00,Acu-Link.com,2013-03-04 11:35:00,
2013-03-04 03:50:00,29.5,29.0,30.18,NNE,22,0.0,-999.0,98,-99.99,,,0.00,Acu-Link.com,2013-03-04 11:50:00,
2013-03-04 04:05:00,30.2,29.7,30.17,NNE,22,0.0,-999.0,98,-99.99,,,0.00,Acu-Link.com,2013-03-04 12:05:00,
2013-03-04 04:21:00,29.1,28.6,30.17,NNE,22,0.0,-999.0,98,-99.99,,,0.00,Acu-Link.com,2013-03-04 12:21:00,
2013-03-04 04:36:00,28.9,28.4,30.17,NNE,22,0.0,-999.0,98,-99.99,,,0.00,Acu-Link.com,2013-03-04 12:36:00,
2013-03-04 04:51:00,28.9,28.4,30.17,NNE,22,0.0,-999.0,98,-99.99,,,0.00,Acu-Link.com,2013-03-04 12:51:00,
2013-03-04 05:06:00,30.2,29.7,30.16,NNE,22,0.0,-999.0,98,-99.99,,,0.00,Acu-Link.com,2013-03-04 13:06:00,
2013-03-04 05:21:00,28.4,27.9,30.16,NNE,22,0.0,-999.0,98,-99.99,,,0.00,Acu-Link.com,2013-03-04 13:21:00,
2013-03-04 05:36:00,28.8,28.3,30.16,NNE,22,0.0,-999.0,98,-99.99,,,0.00,Acu-Link.com,2013-03-04 13:36:00,
2013-03-04 05:51:00,28.2,27.7,30.16,NNE,22,0.0,-999.0,98,-99.99,,,0.00,Acu-Link.com,2013-03-04 13:51:00,
2013-03-04 06:06:00,28.6,28.1,30.16,NNE,22,0.0,-999.0,98,-99.99,,,0.00,Acu-Link.com,2013-03-04 14:06:00,
2013-03-04 06:22:00,30.2,29.7,30.16,NE,45,0.0,-999.0,98,-99.99,,,0.00,Acu-Link.com,2013-03-04 14:22:00,
2013-03-04 06:37:00,28.4,27.9,30.15,NE,45,0.0,-999.0,98,-99.99,,,0.00,Acu-Link.com,2013-03-04 14:37:00,
2013-03-04 06:52:00,28.6,28.1,30.14,NE,45,0.0,-999.0,98,-99.99,,,0.00,Acu-Link.com,2013-03-04 14:52:00,
2013-03-04 07:07:00,28.9,28.4,30.14,NNE,22,0.0,-999.0,98,-99.99,,,0.00,Acu-Link.com,2013-03-04 15:07:00,
2013-03-04 07:22:00,30.2,29.7,30.14,NNE,22,0.0,-999.0,98,-99.99,,,0.00,Acu-Link.com,2013-03-04 15:22:00,
2013-03-04 07:37:00,30.0,29.5,30.14,NE,45,0.0,-999.0,98,-99.99,,,0.00,Acu-Link.com,2013-03-04 15:37:00,
2013-03-04 07:52:00,32.2,31.7,30.13,West,270,0.0,-999.0,98,-99.99,,,0.00,Acu-Link.com,2013-03-04 15:52:00,
2013-03-04 08:08:00,32.9,32.4,30.13,West,270,0.0,-999.0,98,-99.99,,,0.00,Acu-Link.com,2013-03-04 16:08:00,
2013-03-04 08:23:00,35.1,34.6,30.13,SSW,202,0.0,-999.0,98,-99.99,,,0.00,Acu-Link.com,2013-03-04 16:23:00,
2013-03-04 08:38:00,36.5,36.0,30.13,West,270,0.0,-999.0,98,-99.99,,,0.00,Acu-Link.com,2013-03-04 16:38:00,
2013-03-04 08:53:00,37.4,36.9,30.13,NNE,22,0.0,-999.0,98,-99.99,,,0.00,Acu-Link.com,2013-03-04 16:53:00,
2013-03-04 09:08:00,39.7,39.2,30.13,NNE,22,0.0,-999.0,98,-99.99,,,0.00,Acu-Link.com,2013-03-04 17:08:00,
2013-03-04 09:23:00,41.4,40.8,30.13,NE,45,1.1,-999.0,98,-99.99,,,0.00,Acu-Link.com,2013-03-04 17:23:00,
2013-03-04 09:38:00,42.1,41.6,30.13,ENE,67,1.1,-999.0,98,-99.99,,,0.00,Acu-Link.com,2013-03-04 17:38:00,
2013-03-04 09:53:00,45.1,44.6,30.12,West,270,0.0,-999.0,98,-99.99,,,0.00,Acu-Link.com,2013-03-04 17:53:00,
2013-03-04 10:08:00,46.4,40.6,30.12,West,270,0.0,-999.0,80,-99.99,,,0.00,Acu-Link.com,2013-03-04 18:08:00,
2013-03-04 10:23:00,46.4,31.1,30.11,WSW,247,2.7,-999.0,55,-99.99,,,0.00,Acu-Link.com,2013-03-04 18:23:00,
2013-03-04 10:38:00,46.0,28.5,30.11,East,90,1.1,-999.0,50,-99.99,,,0.00,Acu-Link.com,2013-03-04 18:38:00,
2013-03-04 10:39:00,46.0,28.5,30.11,East,90,1.1,-999.0,50,-99.99,,,0.00,Acu-Link.com,2013-03-04 18:39:00,
2013-03-04 10:54:00,47.3,27.0,30.10,SSW,202,0.0,-999.0,45,-99.99,,,0.00,Acu-Link.com,2013-03-04 18:54:00,
2013-03-04 11:09:00,49.5,24.3,30.10,ENE,67,2.2,-999.0,37,-99.99,,,0.00,Acu-Link.com,2013-03-04 19:09:00,
2013-03-04 11:24:00,48.2,23.2,30.09,West,270,0.0,-999.0,37,-99.99,,,0.00,Acu-Link.com,2013-03-04 19:24:00,
2013-03-04 11:39:00,51.4,27.3,30.08,WSW,247,2.2,-999.0,39,-99.99,,,0.00,Acu-Link.com,2013-03-04 19:39:00,
2013-03-04 11:54:00,50.0,24.8,30.07,SSE,157,0.0,-999.0,37,-99.99,,,0.00,Acu-Link.com,2013-03-04 19:54:00,
2013-03-04 12:09:00,52.0,24.5,30.07,WSW,247,0.0,-999.0,34,-99.99,,,0.00,Acu-Link.com,2013-03-04 20:09:00,
2013-03-04 12:25:00,51.6,17.0,30.07,SW,225,1.6,-999.0,25,-99.99,,,0.00,Acu-Link.com,2013-03-04 20:25:00,
2013-03-04 12:40:00,51.4,21.8,30.06,SSW,202,0.0,-999.0,31,-99.99,,,0.00,Acu-Link.com,2013-03-04 20:40:00,
2013-03-04 12:55:00,51.8,20.6,30.05,ESE,112,1.1,-999.0,29,-99.99,,,0.00,Acu-Link.com,2013-03-04 20:55:00,
2013-03-04 13:10:00,50.2,19.2,30.05,SSW,202,0.0,-999.0,29,-99.99,,,0.00,Acu-Link.com,2013-03-04 21:10:00,
2013-03-04 13:25:00,50.2,17.5,30.04,NW,315,2.7,-999.0,27,-99.99,,,0.00,Acu-Link.com,2013-03-04 21:25:00,
2013-03-04 13:40:00,50.0,15.6,30.02,SSW,202,0.0,-999.0,25,-99.99,,,0.00,Acu-Link.com,2013-03-04 21:40:00,
2013-03-04 13:55:00,51.1,10.3,30.01,West,270,1.6,-999.0,19,-99.99,,,0.00,Acu-Link.com,2013-03-04 21:55:00,
2013-03-04 14:10:00,51.8,8.4,30.01,SSE,157,0.0,-999.0,17,-99.99,,,0.00,Acu-Link.com,2013-03-04 22:10:00,
2013-03-04 14:26:00,51.3,-1.4,30.00,SSE,157,3.1,-999.0,11,-99.99,,,0.00,Acu-Link.com,2013-03-04 22:26:00,
2013-03-04 14:41:00,51.1,-3.6,29.99,West,270,1.6,-999.0,10,-99.99,,,0.00,Acu-Link.com,2013-03-04 22:41:00,
2013-03-04 14:56:00,50.9,-1.7,29.98,WNW,292,0.0,-999.0,11,-99.99,,,0.00,Acu-Link.com,2013-03-04 22:56:00,
2013-03-04 15:11:00,50.0,-2.4,29.97,SSW,202,2.0,-999.0,11,-99.99,,,0.00,Acu-Link.com,2013-03-04 23:11:00,
2013-03-04 15:26:00,50.9,-3.7,29.97,NW,315,0.0,-999.0,10,-99.99,,,0.00,Acu-Link.com,2013-03-04 23:26:00,
2013-03-04 15:41:00,51.8,-1.0,29.96,SSW,202,1.6,-999.0,11,-99.99,,,0.00,Acu-Link.com,2013-03-04 23:41:00,
2013-03-04 15:56:00,52.0,-0.9,29.95,West,270,3.1,-999.0,11,-99.99,,,0.00,Acu-Link.com,2013-03-04 23:56:00,
2013-03-04 16:11:00,51.4,-1.3,29.95,NNE,22,0.0,-999.0,11,-99.99,,,0.00,Acu-Link.com,2013-03-05 00:11:00,
2013-03-04 16:27:00,50.9,-3.7,29.94,NNE,22,3.8,-999.0,10,-99.99,,,0.00,Acu-Link.com,2013-03-05 00:27:00,
2013-03-04 16:42:00,50.4,-4.1,29.93,West,270,1.6,-999.0,10,-99.99,,,0.00,Acu-Link.com,2013-03-05 00:42:00,
2013-03-04 16:57:00,50.4,-4.1,29.93,NNE,22,1.6,-999.0,10,-99.99,,,0.00,Acu-Link.com,2013-03-05 00:57:00,
2013-03-04 17:12:00,49.6,-4.7,29.93,North,0,0.0,-999.0,10,-99.99,,,0.00,Acu-Link.com,2013-03-05 01:12:00,
2013-03-04 17:27:00,48.2,-2.0,29.93,West,270,0.0,-999.0,12,-99.99,,,0.00,Acu-Link.com,2013-03-05 01:27:00,
2013-03-04 17:43:00,47.8,-2.3,29.92,West,270,0.0,-999.0,12,-99.99,,,0.00,Acu-Link.com,2013-03-05 01:43:00,
2013-03-04 17:58:00,46.9,-1.3,29.92,NNE,22,0.0,-999.0,13,-99.99,,,0.00,Acu-Link.com,2013-03-05 01:58:00,
2013-03-04 18:13:00,45.7,4.6,29.91,NE,45,0.0,-999.0,18,-99.99,,,0.00,Acu-Link.com,2013-03-05 02:13:00,
2013-03-04 18:28:00,45.1,6.5,29.91,NE,45,0.0,-999.0,20,-99.99,,,0.00,Acu-Link.com,2013-03-05 02:28:00,
2013-03-04 18:43:00,44.8,5.1,29.90,NNE,22,0.0,-999.0,19,-99.99,,,0.00,Acu-Link.com,2013-03-05 02:43:00,
2013-03-04 18:58:00,44.6,4.9,29.91,North,0,1.1,-999.0,19,-99.99,,,0.00,Acu-Link.com,2013-03-05 02:58:00,
2013-03-04 19:13:00,43.5,7.2,29.90,SSW,202,0.0,-999.0,22,-99.99,,,0.00,Acu-Link.com,2013-03-05 03:13:00,
2013-03-04 19:28:00,41.9,11.2,29.90,SSW,202,0.0,-999.0,28,-99.99,,,0.00,Acu-Link.com,2013-03-05 03:28:00,
2013-03-04 19:43:00,40.5,15.6,29.90,East,90,0.0,-999.0,36,-99.99,,,0.00,Acu-Link.com,2013-03-05 03:43:00,
2013-03-04 19:58:00,40.1,15.3,29.90,West,270,0.0,-999.0,36,-99.99,,,0.00,Acu-Link.com,2013-03-05 03:58:00,
2013-03-04 20:14:00,39.2,14.5,29.89,WSW,247,0.0,-999.0,36,-99.99,,,0.00,Acu-Link.com,2013-03-05 04:14:00,
2013-03-04 20:29:00,38.8,17.2,29.88,SW,225,0.0,-999.0,41,-99.99,,,0.00,Acu-Link.com,2013-03-05 04:29:00,
2013-03-04 20:44:00,38.1,19.2,29.88,SSW,202,0.0,-999.0,46,-99.99,,,0.00,Acu-Link.com,2013-03-05 04:44:00,
2013-03-04 20:59:00,37.6,19.7,29.88,NNE,22,0.0,-999.0,48,-99.99,,,0.00,Acu-Link.com,2013-03-05 04:59:00,
2013-03-04 21:14:00,38.7,20.2,29.88,East,90,0.0,-999.0,47,-99.99,,,0.00,Acu-Link.com,2013-03-05 05:14:00,
2013-03-04 21:30:00,38.1,21.6,29.88,West,270,0.0,-999.0,51,-99.99,,,0.00,Acu-Link.com,2013-03-05 05:30:00,
2013-03-04 21:45:00,37.4,26.0,29.88,SSW,202,0.0,-999.0,63,-99.99,,,0.00,Acu-Link.com,2013-03-05 05:45:00,
2013-03-04 22:00:00,36.7,28.5,29.89,NNE,22,0.0,-999.0,72,-99.99,,,0.00,Acu-Link.com,2013-03-05 06:00:00,
2013-03-04 22:15:00,36.1,30.3,29.89,NNE,22,0.0,-999.0,79,-99.99,,,0.00,Acu-Link.com,2013-03-05 06:15:00,
2013-03-04 22:30:00,35.6,31.5,29.88,NNE,22,0.0,-999.0,85,-99.99,,,0.00,Acu-Link.com,2013-03-05 06:30:00,
2013-03-04 22:45:00,35.6,34.3,29.88,ENE,67,0.0,-999.0,95,-99.99,,,0.00,Acu-Link.com,2013-03-05 06:45:00,
2013-03-04 23:00:00,35.6,31.8,29.87,NNW,337,0.0,-999.0,86,-99.99,,,0.00,Acu-Link.com,2013-03-05 07:00:00,
2013-03-04 23:16:00,35.6,34.8,29.86,NNE,22,0.0,-999.0,97,-99.99,,,0.00,Acu-Link.com,2013-03-05 07:16:00,
2013-03-04 23:31:00,35.4,34.9,29.85,West,270,0.0,-999.0,98,-99.99,,,0.00,Acu-Link.com,2013-03-05 07:31:00,
2013-03-04 23:46:00,35.6,34.6,29.85,SSW,202,0.0,-999.0,96,-99.99,,,0.00,Acu-Link.com,2013-03-05 07:46:00,